Metar z połowy godziny Komunikat METAR ze strony awiacja.imgw.pl Metar G30 EPDA METAR EPDA 221430Z 26012KT 210V290 9999 FEW025 16/10 Q1014 RMK 161 067 2/2=